Time;durP1;ratioP1;P1;durP2;ratioP2;P2;SDS_P1;SDS_P2;PMS_P1;PMS_P2;Temp;Humidity;BMP_temperature;BMP_pressure;BME280_temperature;BME280_humidity;BME280_pressure;Samples;Min_cycle;Max_cycle;Signal;HPM_P1;HPM_P2
2022/12/03 00:02:14;;;;;;;23.07;13.80;;;3.50;99.90;;;;;;5045707;28;20191;-87
2022/12/03 00:04:40;;;;;;;24.20;14.60;;;3.50;76.70;;;;;;5030392;28;20247;-86
2022/12/03 00:07:05;;;;;;;24.00;14.90;;;3.50;83.30;;;;;;5040147;28;20218;-87
2022/12/03 00:09:31;;;;;;;22.77;14.80;;;3.50;1.00;;;;;;5040577;28;20183;-86
2022/12/03 00:11:56;;;;;;;22.97;14.60;;;3.50;1.00;;;;;;5043214;28;20577;-86
2022/12/03 00:14:22;;;;;;;21.23;13.33;;;3.50;1.00;;;;;;5041410;28;20193;-87
2022/12/03 00:16:50;;;;;;;26.60;14.77;;;3.50;1.00;;;;;;5047577;28;20234;-86
2022/12/03 00:19:15;;;;;;;28.15;14.52;;;3.50;1.00;;;;;;5056286;28;20195;-89
2022/12/03 00:21:41;;;;;;;23.00;15.40;;;3.40;1.00;;;;;;5046722;28;20724;-86
2022/12/03 00:24:06;;;;;;;21.47;14.10;;;3.40;1.00;;;;;;5038427;28;20182;-85
2022/12/03 00:26:32;;;;;;;23.73;13.90;;;3.40;1.00;;;;;;5015967;28;20202;-85
2022/12/03 00:28:58;;;;;;;22.77;14.73;;;3.40;1.00;;;;;;5034772;28;20472;-85
2022/12/03 00:31:24;;;;;;;19.60;13.87;;;3.40;1.00;;;;;;5036755;28;20209;-85
2022/12/03 00:33:50;;;;;;;21.15;12.95;;;3.40;99.90;;;;;;5036090;28;20202;-86
2022/12/03 00:36:16;;;;;;;22.65;13.80;;;3.40;99.90;;;;;;5036544;28;20206;-86
2022/12/03 00:38:41;;;;;;;22.30;14.87;;;3.40;88.30;;;;;;5036977;28;20189;-85
2022/12/03 00:41:07;;;;;;;19.90;12.70;;;3.50;99.90;;;;;;5036887;28;20194;-86
2022/12/03 00:43:32;;;;;;;21.33;14.13;;;3.50;99.90;;;;;;5033267;28;20592;-83
2022/12/03 00:45:58;;;;;;;25.37;15.47;;;3.50;99.30;;;;;;5032538;28;20210;-86
2022/12/03 00:48:23;;;;;;;20.23;12.77;;;3.50;94.50;;;;;;5031695;28;20231;-86
2022/12/03 00:50:49;;;;;;;22.93;13.43;;;3.50;1.00;;;;;;5036564;28;20237;-86
2022/12/03 00:53:14;;;;;;;21.30;13.37;;;3.50;1.00;;;;;;5035909;28;20186;-85
2022/12/03 00:55:40;;;;;;;23.50;13.10;;;3.50;27.70;;;;;;5005973;28;20199;-85
2022/12/03 00:58:07;;;;;;;19.10;12.60;;;3.60;1.00;;;;;;5018947;28;20182;-85
2022/12/03 01:00:33;;;;;;;18.95;12.55;;;3.60;1.00;;;;;;5027353;28;20233;-85
2022/12/03 01:02:58;;;;;;;17.70;12.03;;;3.60;1.00;;;;;;5029611;28;20224;-86
2022/12/03 01:05:24;;;;;;;19.23;12.60;;;3.60;1.00;;;;;;5018494;28;20218;-86
2022/12/03 01:07:49;;;;;;;20.40;13.10;;;3.60;99.90;;;;;;5034088;28;20237;-85
2022/12/03 01:10:15;;;;;;;22.57;14.47;;;3.60;99.90;;;;;;5026684;28;20183;-85
2022/12/03 01:12:40;;;;;;;19.83;13.43;;;3.60;99.90;;;;;;5036645;28;20182;-85
2022/12/03 01:15:07;;;;;;;23.50;13.47;;;3.50;99.90;;;;;;5035130;28;20198;-86
2022/12/03 01:17:32;;;;;;;17.83;11.82;;;3.50;99.90;;;;;;5031005;28;20214;-85
2022/12/03 01:19:58;;;;;;;17.80;12.43;;;3.60;99.90;;;;;;5015350;28;20193;-85
2022/12/03 01:22:24;;;;;;;18.97;12.50;;;3.50;99.90;;;;;;5024111;28;20181;-85
2022/12/03 01:24:50;;;;;;;21.20;14.43;;;3.50;99.90;;;;;;5033545;28;20715;-86
2022/12/03 01:27:15;;;;;;;21.93;11.93;;;3.50;99.90;;;;;;5016479;28;20209;-84
2022/12/03 01:29:41;;;;;;;19.77;12.00;;;3.50;99.90;;;;;;5035889;28;20437;-85
2022/12/03 01:32:17;;;;;;;21.20;14.10;;;3.50;40.60;;;;;;5030655;28;20194;-85
2022/12/03 01:34:47;;;;;;;21.70;12.68;;;3.50;99.90;;;;;;5030220;28;20275;-85
2022/12/03 01:37:14;;;;;;;16.75;11.45;;;3.50;99.90;;;;;;5014684;28;20183;-85
2022/12/03 01:39:40;;;;;;;17.17;11.30;;;3.50;99.90;;;;;;5034885;28;20233;-86
2022/12/03 01:42:10;;;;;;;21.23;13.05;;;3.60;36.80;;;;;;5031042;28;20171;-86
2022/12/03 01:44:38;;;;;;;22.13;12.73;;;3.50;1.00;;;;;;5029554;28;20206;-85
2022/12/03 01:47:09;;;;;;;20.45;12.32;;;3.60;99.90;;;;;;5019702;28;20214;-86
2022/12/03 01:49:52;;;;;;;22.20;13.65;;;3.60;87.10;;;;;;5020412;28;20265;-86
2022/12/03 01:52:22;;;;;;;15.35;10.82;;;3.60;43.90;;;;;;5025862;28;20680;-84
2022/12/03 01:54:59;;;;;;;21.55;13.57;;;3.60;1.00;;;;;;5027229;28;20178;-86
2022/12/03 01:57:26;;;;;;;19.02;11.93;;;3.60;1.00;;;;;;5028015;28;20561;-86
2022/12/03 01:59:54;;;;;;;20.42;10.82;;;3.60;80.50;;;;;;5036748;28;20591;-86
2022/12/03 02:02:24;;;;;;;21.25;13.27;;;3.60;1.00;;;;;;5018074;28;20186;-88
2022/12/03 02:04:51;;;;;;;19.90;14.40;;;3.50;1.00;;;;;;5033831;28;20269;-85
2022/12/03 02:07:20;;;;;;;17.40;12.52;;;3.60;47.40;;;;;;5018794;28;20704;-85
2022/12/03 02:09:46;;;;;;;18.38;12.27;;;3.60;99.90;;;;;;5027127;28;20414;-85
2022/12/03 02:12:14;;;;;;;21.52;13.27;;;3.60;86.30;;;;;;5035824;28;20205;-85
2022/12/03 02:14:40;;;;;;;20.58;12.73;;;3.60;1.00;;;;;;5032870;28;20213;-85
2022/12/03 02:17:05;;;;;;;18.93;11.90;;;3.60;42.10;;;;;;5029626;28;20202;-85
2022/12/03 02:19:31;;;;;;;18.93;11.23;;;3.60;1.00;;;;;;5027078;28;20178;-86
2022/12/03 02:22:07;;;;;;;21.43;12.63;;;3.60;1.00;;;;;;5028974;28;20182;-86
2022/12/03 02:24:39;;;;;;;19.83;12.25;;;3.60;1.00;;;;;;5033421;28;20185;-86
2022/12/03 02:27:05;;;;;;;19.27;11.38;;;3.50;1.00;;;;;;5032642;28;20589;-86
2022/12/03 02:29:30;;;;;;;17.80;11.83;;;3.50;1.00;;;;;;5036855;28;20270;-86
2022/12/03 02:31:56;;;;;;;23.63;12.93;;;3.50;61.50;;;;;;5017304;28;20437;-87
2022/12/03 02:34:32;;;;;;;22.40;13.27;;;3.50;1.00;;;;;;5040687;28;20200;-86
2022/12/03 02:36:58;;;;;;;18.33;11.77;;;3.50;99.90;;;;;;5038290;28;20290;-85
2022/12/03 02:39:23;;;;;;;19.33;12.47;;;3.60;99.90;;;;;;5035691;28;20179;-86
2022/12/03 02:44:33;;;;;;;21.52;12.93;;;3.60;99.90;;;;;;5037484;28;20212;-86
2022/12/03 02:47:00;;;;;;;25.27;14.67;;;3.60;99.90;;;;;;5038512;28;20209;-87
2022/12/03 02:49:25;;;;;;;21.63;12.98;;;3.60;1.00;;;;;;5036244;28;20201;-87
2022/12/03 02:51:51;;;;;;;23.03;13.50;;;3.60;99.90;;;;;;5040989;28;20256;-87
2022/12/03 02:54:17;;;;;;;22.80;13.17;;;3.60;99.90;;;;;;5041465;28;20184;-87
2022/12/03 02:56:42;;;;;;;19.47;12.33;;;3.50;70.80;;;;;;5021828;28;20202;-86
2022/12/03 02:59:08;;;;;;;20.13;13.40;;;3.50;99.90;;;;;;5036210;28;20262;-86
2022/12/03 03:01:33;;;;;;;18.70;12.40;;;3.50;99.90;;;;;;5038327;28;20192;-86
2022/12/03 03:04:00;;;;;;;20.73;12.03;;;3.50;99.90;;;;;;5032428;28;20198;-86
2022/12/03 03:06:26;;;;;;;22.70;14.88;;;3.50;99.90;;;;;;5034281;28;20228;-87
2022/12/03 03:08:51;;;;;;;19.80;13.20;;;3.50;99.90;;;;;;5042797;28;20186;-86
2022/12/03 03:11:17;;;;;;;21.67;13.10;;;3.50;99.90;;;;;;5041957;28;20178;-86
2022/12/03 03:13:43;;;;;;;22.13;12.50;;;3.50;1.00;;;;;;5028792;28;20178;-86
2022/12/03 03:16:08;;;;;;;19.70;12.63;;;3.50;1.00;;;;;;5038161;28;20213;-85
2022/12/03 03:18:34;;;;;;;22.30;13.97;;;3.50;1.00;;;;;;5039381;28;20248;-85
2022/12/03 03:21:01;;;;;;;17.30;11.90;;;3.40;99.90;;;;;;5045117;28;20561;-86
2022/12/03 03:23:26;;;;;;;24.15;13.85;;;3.40;1.00;;;;;;5038146;28;20228;-86
2022/12/03 03:26:02;;;;;;;19.87;11.90;;;3.40;1.00;;;;;;5039969;28;20201;-87
2022/12/03 03:28:29;;;;;;;20.95;12.77;;;3.40;1.00;;;;;;5042602;28;20213;-87
2022/12/03 03:30:55;;;;;;;22.48;14.35;;;3.40;22.90;;;;;;5036133;28;20241;-85
2022/12/03 03:33:21;;;;;;;24.75;14.98;;;3.50;99.90;;;;;;5036048;28;20174;-86
2022/12/03 03:35:47;;;;;;;18.70;12.10;;;3.50;99.90;;;;;;5041120;28;20205;-87
2022/12/03 03:38:14;;;;;;;25.92;13.40;;;3.50;99.90;;;;;;5027710;28;20611;-86
2022/12/03 03:40:40;;;;;;;21.33;13.20;;;3.60;99.90;;;;;;5044329;28;20189;-86
2022/12/03 03:43:06;;;;;;;20.03;12.53;;;3.60;99.90;;;;;;5039555;28;20199;-86
2022/12/03 03:45:32;;;;;;;23.63;14.30;;;3.60;93.00;;;;;;5041197;28;20213;-86
2022/12/03 03:47:58;;;;;;;18.83;12.55;;;3.60;1.00;;;;;;5041098;28;20210;-86
2022/12/03 03:50:26;;;;;;;18.50;11.55;;;3.70;1.00;;;;;;5035943;28;20553;-86
2022/12/03 03:52:53;;;;;;;24.30;14.10;;;3.70;1.00;;;;;;5039398;28;20199;-86
2022/12/03 03:55:19;;;;;;;20.33;13.45;;;3.70;1.00;;;;;;5043825;28;20733;-86
2022/12/03 03:57:45;;;;;;;22.70;13.77;;;3.70;1.00;;;;;;5028055;28;20178;-86
2022/12/03 04:00:11;;;;;;;21.63;13.25;;;3.70;1.00;;;;;;5036813;28;20210;-85
2022/12/03 04:02:37;;;;;;;22.77;13.10;;;3.70;1.00;;;;;;5026281;28;20182;-84
2022/12/03 04:05:03;;;;;;;18.30;12.63;;;3.70;1.00;;;;;;5043540;28;20638;-87
2022/12/03 04:07:28;;;;;;;21.98;13.32;;;3.70;1.00;;;;;;5040062;28;20242;-86
2022/12/03 04:09:54;;;;;;;20.87;11.90;;;3.70;1.00;;;;;;5039451;28;20240;-86
2022/12/03 04:15:04;;;;;;;20.08;12.60;;;3.60;1.00;;;;;;5036813;28;20189;-86
2022/12/03 04:17:30;;;;;;;25.88;13.93;;;3.60;1.00;;;;;;5033484;28;20273;-86
2022/12/03 04:19:56;;;;;;;20.87;12.30;;;3.60;1.00;;;;;;5033463;28;20217;-86
2022/12/03 04:22:40;;;;;;;19.43;12.03;;;3.60;1.00;;;;;;5035792;28;20182;-86
2022/12/03 04:30:35;;;;;;;22.33;14.13;;;3.50;62.60;;;;;;5044144;28;20193;-85
2022/12/03 04:35:45;;;;;;;22.08;13.00;;;3.50;99.90;;;;;;5029991;28;20221;-84
2022/12/03 04:38:13;;;;;;;26.03;14.77;;;3.50;99.90;;;;;;5036647;28;20187;-86
2022/12/03 04:43:24;;;;;;;24.95;14.35;;;3.40;99.90;;;;;;5040905;28;20193;-85
2022/12/03 04:45:49;;;;;;;22.87;13.20;;;3.40;99.90;;;;;;5040552;28;20573;-86
2022/12/03 04:48:15;;;;;;;21.03;13.33;;;3.40;99.90;;;;;;5037127;28;20213;-86
2022/12/03 04:50:41;;;;;;;23.03;13.20;;;3.40;1.00;;;;;;5032628;28;20186;-87
2022/12/03 04:53:07;;;;;;;20.57;12.60;;;3.50;1.00;;;;;;5038028;28;20846;-86
2022/12/03 04:55:32;;;;;;;21.88;14.07;;;3.50;1.00;;;;;;5031307;28;20198;-86
2022/12/03 04:57:58;;;;;;;24.27;15.63;;;3.50;1.00;;;;;;5038946;28;20198;-86
2022/12/03 05:00:24;;;;;;;23.37;13.03;;;3.50;99.90;;;;;;5039365;28;20197;-87
2022/12/03 05:02:49;;;;;;;22.60;12.80;;;3.40;99.90;;;;;;5029205;28;20190;-86
2022/12/03 05:05:15;;;;;;;23.40;15.07;;;3.40;99.90;;;;;;5040017;28;20217;-86
2022/12/03 05:07:41;;;;;;;22.57;13.77;;;3.40;99.90;;;;;;5039789;28;20261;-85
2022/12/03 05:10:07;;;;;;;24.42;13.25;;;3.40;1.00;;;;;;5016297;28;20691;-86
2022/12/03 05:12:33;;;;;;;20.90;12.30;;;3.30;1.00;;;;;;5037935;28;20214;-87
2022/12/03 05:14:58;;;;;;;23.93;13.60;;;3.30;1.00;;;;;;5039639;28;20216;-86
2022/12/03 05:17:24;;;;;;;30.80;16.63;;;3.30;1.00;;;;;;5029396;28;20191;-86
2022/12/03 05:22:33;;;;;;;26.20;14.80;;;3.40;61.80;;;;;;5039664;28;20213;-86
2022/12/03 05:24:59;;;;;;;24.40;14.07;;;3.40;1.00;;;;;;5037248;28;20186;-85
2022/12/03 05:27:24;;;;;;;22.63;13.17;;;3.40;1.00;;;;;;5035973;28;20244;-85
2022/12/03 05:29:51;;;;;;;20.33;12.43;;;3.40;1.00;;;;;;5032190;28;20182;-85
2022/12/03 05:32:16;;;;;;;24.40;15.07;;;3.40;1.00;;;;;;5039305;28;20187;-86
2022/12/03 05:34:42;;;;;;;26.20;15.70;;;3.40;1.00;;;;;;5021781;28;20189;-85
2022/12/03 05:37:07;;;;;;;24.63;13.93;;;3.50;99.90;;;;;;5038997;28;20213;-85
2022/12/03 05:39:33;;;;;;;20.10;12.90;;;3.50;1.00;;;;;;5028114;28;20258;-86
2022/12/03 05:44:42;;;;;;;26.67;14.70;;;3.60;1.00;;;;;;5038340;28;20606;-85
2022/12/03 05:47:08;;;;;;;25.57;13.30;;;3.60;1.00;;;;;;5016492;28;20202;-86
2022/12/03 05:49:33;;;;;;;25.53;13.63;;;3.60;1.00;;;;;;5037091;28;20187;-85
2022/12/03 05:51:59;;;;;;;20.63;12.50;;;3.60;1.00;;;;;;5008821;28;20175;-86
2022/12/03 05:54:25;;;;;;;23.20;13.70;;;3.60;99.90;;;;;;5020596;28;20182;-86
2022/12/03 05:56:50;;;;;;;22.87;13.23;;;3.60;99.90;;;;;;5036022;28;20212;-85
2022/12/03 05:59:16;;;;;;;22.50;13.90;;;3.60;99.90;;;;;;5029890;28;20660;-86
2022/12/03 06:01:41;;;;;;;26.23;13.97;;;3.60;99.90;;;;;;5020630;28;20202;-86
2022/12/03 06:04:07;;;;;;;23.63;13.20;;;3.60;99.90;;;;;;5007335;28;20537;-85
2022/12/03 06:06:32;;;;;;;25.30;14.37;;;3.60;99.90;;;;;;5030051;28;20211;-86
2022/12/03 06:08:58;;;;;;;28.00;14.00;;;3.60;99.90;;;;;;5038874;28;20182;-85
2022/12/03 06:11:23;;;;;;;21.33;12.80;;;3.70;99.90;;;;;;5021944;28;20205;-85
2022/12/03 06:13:49;;;;;;;20.77;12.93;;;3.70;25.70;;;;;;5038362;28;20257;-86
2022/12/03 06:16:14;;;;;;;22.33;13.00;;;3.70;34.90;;;;;;5021729;28;20290;-84
2022/12/03 06:18:40;;;;;;;22.50;12.60;;;3.70;1.00;;;;;;5033949;28;20240;-86
2022/12/03 06:21:05;;;;;;;24.43;14.37;;;3.70;99.90;;;;;;5020223;28;20257;-86
2022/12/03 06:23:31;;;;;;;23.67;13.10;;;3.70;99.90;;;;;;5019574;28;20182;-85
2022/12/03 06:25:56;;;;;;;27.63;13.40;;;3.70;1.00;;;;;;5019773;28;20295;-85
2022/12/03 06:28:22;;;;;;;28.43;14.10;;;3.70;1.00;;;;;;5039989;28;20217;-86
2022/12/03 06:30:47;;;;;;;23.50;13.23;;;3.70;1.00;;;;;;5043661;28;20246;-85
2022/12/03 06:33:13;;;;;;;22.70;13.10;;;3.70;1.00;;;;;;5008931;28;20170;-85
2022/12/03 06:35:38;;;;;;;22.60;12.60;;;3.70;1.00;;;;;;5032755;28;20586;-87
2022/12/03 06:38:04;;;;;;;22.97;13.70;;;3.70;1.00;;;;;;5025059;28;20729;-85
2022/12/03 06:40:29;;;;;;;27.70;14.37;;;3.70;99.90;;;;;;5032600;28;20182;-86
2022/12/03 06:42:55;;;;;;;23.03;13.57;;;3.70;99.90;;;;;;5043120;28;20170;-86
2022/12/03 06:45:20;;;;;;;23.10;12.53;;;3.70;99.90;;;;;;5033859;28;20206;-85
2022/12/03 06:47:46;;;;;;;25.90;12.00;;;3.70;1.00;;;;;;5043936;28;20195;-85
2022/12/03 06:50:26;;;;;;;24.23;13.30;;;3.70;99.90;;;;;;4988465;28;20206;-86
2022/12/03 06:52:52;;;;;;;29.97;14.30;;;3.60;99.90;;;;;;5027349;28;20204;-85
2022/12/03 06:55:17;;;;;;;25.10;13.17;;;3.60;3.80;;;;;;5039416;28;20217;-86
2022/12/03 06:57:43;;;;;;;26.30;13.13;;;3.50;1.00;;;;;;5024794;28;20177;-85
2022/12/03 07:00:09;;;;;;;20.53;12.80;;;3.50;1.00;;;;;;5035191;28;20195;-85
2022/12/03 07:02:35;;;;;;;24.25;13.63;;;3.50;1.00;;;;;;5025853;28;20280;-86
2022/12/03 07:05:00;;;;;;;24.13;12.80;;;3.40;1.00;;;;;;5041506;28;20186;-86
2022/12/03 07:07:26;;;;;;;24.70;13.67;;;3.40;1.00;;;;;;5014755;28;21035;-84
2022/12/03 07:09:51;;;;;;;21.33;11.00;;;3.40;99.90;;;;;;5036590;28;20197;-86
2022/12/03 07:12:17;;;;;;;24.23;12.60;;;3.40;99.90;;;;;;5035740;28;20229;-85
2022/12/03 07:14:42;;;;;;;28.37;15.20;;;3.40;99.90;;;;;;5040927;28;20558;-84
2022/12/03 07:17:08;;;;;;;24.23;11.80;;;3.50;8.00;;;;;;5035741;28;20262;-85
2022/12/03 07:19:33;;;;;;;23.40;12.53;;;3.60;14.90;;;;;;5028388;28;20696;-86
2022/12/03 07:21:59;;;;;;;22.97;12.97;;;3.60;1.00;;;;;;5032308;28;20180;-85
2022/12/03 07:24:24;;;;;;;29.00;14.70;;;3.70;1.00;;;;;;5026352;28;20277;-85
2022/12/03 07:26:50;;;;;;;22.80;12.80;;;3.70;1.00;;;;;;5021385;28;20285;-86
2022/12/03 07:29:16;;;;;;;24.70;12.40;;;3.70;1.00;;;;;;5038416;28;20183;-87
2022/12/03 07:31:41;;;;;;;27.17;14.70;;;3.70;99.90;;;;;;5031871;28;20174;-85
2022/12/03 07:34:07;;;;;;;25.43;12.63;;;3.80;99.90;;;;;;5033439;28;20198;-86
2022/12/03 07:36:32;;;;;;;27.47;13.93;;;3.80;99.90;;;;;;5031077;28;20191;-86
2022/12/03 07:38:57;;;;;;;28.93;14.77;;;3.80;99.90;;;;;;5029678;28;20262;-84
2022/12/03 07:41:23;;;;;;;26.40;13.10;;;3.90;99.90;;;;;;5032972;28;20239;-86
2022/12/03 07:43:49;;;;;;;25.17;12.90;;;3.90;99.90;;;;;;5032999;28;20171;-86
2022/12/03 07:46:14;;;;;;;27.77;13.90;;;3.90;1.00;;;;;;5042977;28;20229;-85
2022/12/03 07:48:40;;;;;;;28.00;14.33;;;3.90;1.00;;;;;;5039003;28;20207;-85
2022/12/03 07:51:05;;;;;;;30.43;14.60;;;3.90;1.00;;;;;;5033934;28;20186;-87
2022/12/03 07:53:31;;;;;;;23.27;11.97;;;3.90;1.00;;;;;;5025845;28;20179;-85
2022/12/03 07:55:56;;;;;;;28.00;14.20;;;3.90;99.90;;;;;;5034314;28;20202;-86
2022/12/03 07:58:22;;;;;;;24.47;13.80;;;3.90;1.00;;;;;;5037687;28;20650;-86
2022/12/03 08:00:47;;;;;;;26.70;14.43;;;3.90;99.90;;;;;;5027035;28;20197;-86
2022/12/03 08:03:13;;;;;;;26.50;13.03;;;3.90;99.90;;;;;;5028356;28;20182;-85
2022/12/03 08:05:38;;;;;;;26.53;14.20;;;3.90;99.90;;;;;;5026197;28;20221;-87
2022/12/03 08:08:04;;;;;;;24.80;12.67;;;3.80;99.90;;;;;;5036049;28;20212;-86
2022/12/03 08:10:30;;;;;;;25.83;12.67;;;3.80;99.90;;;;;;5034341;28;20193;-85
2022/12/03 08:12:58;;;;;;;27.87;12.60;;;3.80;99.90;;;;;;5031387;28;20175;-86
2022/12/03 08:15:25;;;;;;;22.42;12.18;;;3.80;99.90;;;;;;5031878;28;20210;-86
2022/12/03 08:17:55;;;;;;;27.38;14.82;;;3.80;99.90;;;;;;5047252;28;20232;-86
2022/12/03 08:20:23;;;;;;;25.92;13.63;;;3.80;99.90;;;;;;5042786;28;20181;-86
2022/12/03 08:22:50;;;;;;;33.33;14.20;;;3.90;99.90;;;;;;5033953;28;20642;-85
2022/12/03 08:25:30;;;;;;;22.58;11.65;;;3.90;99.90;;;;;;5028100;28;20229;-86
2022/12/03 08:28:23;;;;;;;27.50;14.30;;;3.90;99.90;;;;;;5032453;28;20246;-87
2022/12/03 08:31:11;;;;;;;26.55;14.43;;;3.90;1.00;;;;;;5042548;28;20202;-87
2022/12/03 08:33:38;;;;;;;25.05;13.77;;;3.90;32.50;;;;;;5037494;28;20175;-87
2022/12/03 08:36:13;;;;;;;24.83;13.68;;;3.80;1.00;;;;;;5050849;28;20218;-86
2022/12/03 08:38:39;;;;;;;24.33;14.45;;;3.90;29.70;;;;;;5038338;28;20171;-84
2022/12/03 08:41:13;;;;;;;22.10;12.77;;;3.90;69.90;;;;;;5028017;28;20225;-85
2022/12/03 08:43:41;;;;;;;25.60;13.35;;;4.00;1.00;;;;;;5019456;28;20175;-85
2022/12/03 08:46:11;;;;;;;26.05;12.55;;;4.00;1.00;;;;;;5030777;28;20592;-84
2022/12/03 08:48:37;;;;;;;26.15;12.85;;;4.00;1.00;;;;;;5033628;28;20224;-85
2022/12/03 08:51:19;;;;;;;27.43;13.97;;;4.00;1.00;;;;;;5020657;28;20179;-85
2022/12/03 08:53:47;;;;;;;25.67;14.20;;;4.10;1.00;;;;;;5036574;28;20447;-84
2022/12/03 08:56:22;;;;;;;25.27;12.48;;;4.10;1.00;;;;;;5018791;28;20533;-84
2022/12/03 08:59:09;;;;;;;27.35;13.18;;;4.10;99.90;;;;;;5025801;28;20201;-85
2022/12/03 09:01:41;;;;;;;23.98;14.43;;;4.10;99.90;;;;;;5031195;28;20277;-85
2022/12/03 09:04:23;;;;;;;27.05;14.80;;;4.10;99.90;;;;;;5031283;28;20208;-84
2022/12/03 09:06:50;;;;;;;29.25;15.48;;;4.00;99.90;;;;;;5035460;28;20210;-85
2022/12/03 09:09:15;;;;;;;26.75;13.32;;;4.00;99.90;;;;;;5035627;28;20186;-82
2022/12/03 09:11:42;;;;;;;24.83;13.87;;;4.00;99.90;;;;;;5035646;28;20175;-84
2022/12/03 09:14:07;;;;;;;21.50;13.15;;;4.00;99.90;;;;;;5025894;28;20201;-84
2022/12/03 09:16:33;;;;;;;29.13;14.13;;;4.00;99.90;;;;;;5035799;28;20274;-84
2022/12/03 09:18:58;;;;;;;24.70;13.30;;;4.00;99.90;;;;;;5036423;28;20189;-84
2022/12/03 09:21:24;;;;;;;28.73;14.13;;;4.00;99.90;;;;;;5030591;28;20193;-83
2022/12/03 09:23:49;;;;;;;23.17;12.43;;;4.00;99.90;;;;;;5029398;28;20184;-82
2022/12/03 09:26:15;;;;;;;27.10;13.97;;;4.00;99.90;;;;;;5014926;28;20225;-83
2022/12/03 09:28:40;;;;;;;26.40;14.80;;;4.00;99.90;;;;;;5034116;28;20240;-84
2022/12/03 09:31:06;;;;;;;28.40;13.57;;;4.00;63.00;;;;;;5030559;28;20645;-85
2022/12/03 09:33:31;;;;;;;25.20;13.70;;;4.00;99.90;;;;;;5016726;28;20178;-83
2022/12/03 09:35:58;;;;;;;24.17;13.17;;;4.10;99.90;;;;;;5030343;28;20736;-84
2022/12/03 09:38:24;;;;;;;23.08;12.02;;;4.10;99.90;;;;;;5030358;28;20511;-84
2022/12/03 09:40:53;;;;;;;25.13;13.95;;;4.20;99.90;;;;;;5012102;28;20221;-84
2022/12/03 09:43:19;;;;;;;24.50;13.32;;;4.20;18.60;;;;;;5012966;28;20178;-83
2022/12/03 09:45:46;;;;;;;23.35;12.32;;;4.30;16.10;;;;;;5017843;28;20194;-83
2022/12/03 09:48:15;;;;;;;23.92;13.23;;;4.30;1.00;;;;;;5035114;28;20202;-84
2022/12/03 09:50:41;;;;;;;22.10;12.60;;;4.40;1.00;;;;;;5034472;28;20186;-84
2022/12/03 09:53:16;;;;;;;22.33;12.32;;;4.60;1.00;;;;;;5023387;28;20701;-83
2022/12/03 09:55:44;;;;;;;21.08;13.43;;;4.70;1.00;;;;;;5029465;28;20717;-85
2022/12/03 09:58:12;;;;;;;24.27;13.60;;;4.80;99.90;;;;;;5033560;28;20182;-84
2022/12/03 10:00:38;;;;;;;24.65;13.70;;;4.80;99.90;;;;;;5016623;28;20197;-84
2022/12/03 10:03:05;;;;;;;29.67;14.13;;;4.90;99.90;;;;;;5025808;28;20186;-83
2022/12/03 10:05:32;;;;;;;23.80;13.75;;;4.90;99.90;;;;;;5028907;28;20217;-84
2022/12/03 10:08:06;;;;;;;26.55;13.73;;;5.00;99.90;;;;;;5030036;28;20263;-84
2022/12/03 10:10:32;;;;;;;27.05;13.88;;;5.10;99.90;;;;;;5031036;28;20187;-83
2022/12/03 10:12:58;;;;;;;25.85;14.00;;;5.10;99.90;;;;;;5014684;28;20218;-83
2022/12/03 10:15:24;;;;;;;24.90;12.83;;;5.20;99.90;;;;;;5028917;28;20233;-84
2022/12/03 10:17:52;;;;;;;25.47;13.80;;;5.20;99.90;;;;;;5028993;28;20277;-83
2022/12/03 10:20:20;;;;;;;27.90;14.45;;;5.20;99.90;;;;;;5026078;28;20187;-84
2022/12/03 10:22:48;;;;;;;24.90;13.13;;;5.30;99.90;;;;;;5025838;28;20186;-84
2022/12/03 10:25:18;;;;;;;22.70;13.75;;;5.30;99.90;;;;;;5031223;28;20210;-84
2022/12/03 10:27:56;;;;;;;22.30;11.93;;;5.40;90.20;;;;;;5028505;28;20202;-83
2022/12/03 10:30:25;;;;;;;28.02;13.65;;;5.30;36.40;;;;;;5031533;28;20181;-83
2022/12/03 10:32:51;;;;;;;26.27;13.90;;;5.20;38.80;;;;;;5030853;28;20264;-84
2022/12/03 10:35:22;;;;;;;26.37;12.87;;;5.10;31.10;;;;;;5031819;28;20198;-85
2022/12/03 10:37:58;;;;;;;25.05;13.73;;;5.10;93.70;;;;;;5029712;28;20686;-84
2022/12/03 10:40:33;;;;;;;24.70;13.80;;;5.10;99.90;;;;;;5032260;28;20213;-85
2022/12/03 10:43:22;;;;;;;22.77;12.73;;;5.20;99.90;;;;;;5031132;28;20693;-87
2022/12/03 10:45:52;;;;;;;24.08;13.05;;;5.20;50.80;;;;;;5034965;28;20234;-87
2022/12/03 10:48:26;;;;;;;23.20;14.60;;;5.10;34.70;;;;;;5036864;28;20241;-85
2022/12/03 10:51:05;;;;;;;25.00;13.88;;;5.10;59.10;;;;;;5029614;28;20654;-85
2022/12/03 10:53:35;;;;;;;25.17;12.88;;;5.20;99.90;;;;;;5032922;28;20174;-84
2022/12/03 10:56:04;;;;;;;28.08;11.90;;;5.20;44.30;;;;;;5030600;28;20202;-86
2022/12/03 10:58:33;;;;;;;25.02;12.68;;;5.20;46.70;;;;;;5035695;28;20190;-85
2022/12/03 11:01:02;;;;;;;23.95;13.05;;;5.20;34.10;;;;;;5015730;28;20194;-85
2022/12/03 11:03:32;;;;;;;23.27;12.27;;;5.20;60.70;;;;;;5014349;28;20289;-85
2022/12/03 11:06:03;;;;;;;23.38;13.05;;;5.20;74.70;;;;;;5031727;28;20218;-86
2022/12/03 11:08:36;;;;;;;23.38;14.25;;;5.20;57.00;;;;;;5029020;28;20225;-85
2022/12/03 11:11:18;;;;;;;22.85;13.45;;;5.10;12.40;;;;;;5012425;28;20259;-85
2022/12/03 11:13:58;;;;;;;23.90;14.20;;;5.00;20.20;;;;;;5034392;28;20277;-86
2022/12/03 11:16:39;;;;;;;23.48;12.52;;;5.00;37.40;;;;;;5031567;28;20272;-87
2022/12/03 11:19:35;;;;;;;22.35;13.10;;;5.10;43.00;;;;;;5028071;28;20182;-86
2022/12/03 11:22:04;;;;;;;19.30;11.90;;;5.10;39.20;;;;;;5027508;28;20244;-88
2022/12/03 11:24:34;;;;;;;25.08;13.10;;;5.20;53.00;;;;;;5031998;28;20268;-86
2022/12/03 11:27:03;;;;;;;20.92;11.77;;;5.30;1.00;;;;;;5023346;28;20201;-86
2022/12/03 11:29:58;;;;;;;21.60;11.63;;;5.30;1.00;;;;;;5035871;28;20190;-87
2022/12/03 11:32:42;;;;;;;22.38;11.90;;;5.20;1.00;;;;;;5030993;28;20182;-85
2022/12/03 11:35:24;;;;;;;18.98;11.88;;;5.20;1.00;;;;;;5035287;28;20205;-86
2022/12/03 11:37:50;;;;;;;23.23;12.35;;;5.20;1.00;;;;;;5037548;28;20193;-86
2022/12/03 11:40:16;;;;;;;22.30;11.45;;;5.30;1.00;;;;;;5043173;28;20182;-86
2022/12/03 11:42:44;;;;;;;19.20;11.30;;;5.30;1.00;;;;;;5037202;28;20215;-86
2022/12/03 11:45:29;;;;;;;20.45;12.60;;;5.40;1.00;;;;;;5011549;28;20214;-85
2022/12/03 11:47:58;;;;;;;24.77;13.15;;;5.50;1.00;;;;;;5038466;28;20269;-85
2022/12/03 11:50:37;;;;;;;21.52;11.70;;;5.60;1.00;;;;;;5034826;28;20183;-85
2022/12/03 11:53:22;;;;;;;24.42;14.07;;;5.70;1.00;;;;;;5036468;28;20182;-84
2022/12/03 11:56:07;;;;;;;19.85;12.90;;;5.80;1.00;;;;;;5036859;28;20206;-85
2022/12/03 11:59:00;;;;;;;22.67;13.07;;;5.80;1.00;;;;;;5038071;28;20194;-86
2022/12/03 12:01:45;;;;;;;21.13;10.98;;;5.90;1.00;;;;;;5028425;28;20717;-85
2022/12/03 12:04:30;;;;;;;19.65;11.98;;;5.80;1.00;;;;;;5031747;28;20194;-85
2022/12/03 12:06:56;;;;;;;19.27;11.30;;;5.80;1.00;;;;;;5019721;28;20689;-86
2022/12/03 12:09:49;;;;;;;20.30;12.50;;;5.80;1.00;;;;;;5036621;28;20189;-86
2022/12/03 12:12:38;;;;;;;19.98;10.93;;;5.80;1.00;;;;;;5039359;28;20212;-86
2022/12/03 12:15:52;;;;;;;21.98;12.60;;;5.70;1.00;;;;;;5028116;28;20175;-86
2022/12/03 12:18:37;;;;;;;18.05;11.15;;;5.60;1.00;;;;;;5014823;28;20194;-86
2022/12/03 12:21:40;;;;;;;23.65;12.38;;;5.60;1.00;;;;;;5032022;28;20194;-86
2022/12/03 12:24:31;;;;;;;20.58;12.43;;;5.70;1.00;;;;;;5028451;28;20190;-86
2022/12/03 12:26:59;;;;;;;26.10;13.82;;;5.90;1.00;;;;;;5024904;28;20299;-86
2022/12/03 12:29:24;;;;;;;17.88;11.48;;;5.90;1.00;;;;;;5009487;28;20182;-86
2022/12/03 12:31:51;;;;;;;31.00;14.03;;;5.80;1.00;;;;;;5019260;28;20182;-86
2022/12/03 12:34:17;;;;;;;26.45;14.27;;;5.70;1.00;;;;;;5030267;28;20701;-86
2022/12/03 12:36:43;;;;;;;26.92;14.82;;;5.70;1.00;;;;;;5027057;28;20211;-86
2022/12/03 12:39:17;;;;;;;25.90;14.50;;;5.60;1.00;;;;;;5039349;28;20248;-86
2022/12/03 12:41:47;;;;;;;26.50;14.80;;;5.60;1.00;;;;;;5040980;28;20175;-86
2022/12/03 12:44:13;;;;;;;22.13;12.23;;;5.60;1.00;;;;;;5041608;28;20238;-86
2022/12/03 12:46:41;;;;;;;21.60;12.53;;;5.60;1.00;;;;;;5028062;28;20229;-86
2022/12/03 12:49:10;;;;;;;21.63;14.15;;;5.70;1.00;;;;;;5025158;28;20241;-86
2022/12/03 12:51:39;;;;;;;25.10;13.07;;;5.80;1.00;;;;;;5023991;28;20175;-85
2022/12/03 12:54:10;;;;;;;26.05;13.55;;;5.80;1.00;;;;;;5016401;28;20186;-84
2022/12/03 12:56:37;;;;;;;22.67;13.93;;;5.80;1.00;;;;;;5035271;28;20670;-86
2022/12/03 12:59:16;;;;;;;23.38;13.82;;;5.80;1.00;;;;;;5009409;28;20174;-85
2022/12/03 13:01:43;;;;;;;21.10;12.68;;;5.70;1.00;;;;;;5026740;28;20197;-86
2022/12/03 13:04:18;;;;;;;23.80;14.10;;;5.70;1.00;;;;;;5029442;28;20190;-86
2022/12/03 13:06:46;;;;;;;28.58;15.73;;;5.60;1.00;;;;;;5022280;28;20255;-86
2022/12/03 13:09:15;;;;;;;22.92;12.90;;;5.60;1.00;;;;;;5028027;28;20178;-86
2022/12/03 13:11:44;;;;;;;24.88;14.10;;;5.70;1.00;;;;;;5022808;28;20179;-85